Carnesville, Georgia
Current Conditions -  °F | °C
As of 5:15 AM on Saturday 20 Dec 2014 (Local Time) from KTOC Reporting Station
Drizzle Drizzle  
Wind Chill: 43°   Ceiling: 5000
Heat Index: 43°   Visibility: 10mi
Dew Point: 42°   Wind: 0mph
Humidity: 96%   Direction: NA
Pressure: 30.14"   Gusts: NA
Location:  34.37°N, 83.24°W
Report Text: KTOC 201015Z AUTO 00000KT 10SM DZ BKN050 OVC075 06/06 A3014 RMK AO2 T00630057
Loading
Personal Weather Stations






























Interactive Weather Map New forecast layout! Learn more

10-Day Weather Forecast

Advertisements
Track Severe Weather on mobile